Time;durP1;ratioP1;P1;durP2;ratioP2;P2;SDS_P1;SDS_P2;PMS_P1;PMS_P2;Temp;Humidity;BMP_temperature;BMP_pressure;BME280_temperature;BME280_humidity;BME280_pressure;Samples;Min_cycle;Max_cycle;Signal;HPM_P1;HPM_P2
2024/01/04 00:04:08;;;;;;;2.07;0.90;;;9.20;99.90;;;;;;10455796;28;20215;-63
2024/01/04 00:09:13;;;;;;;4.30;1.30;;;9.20;99.90;;;;;;10455707;28;20568;-62
2024/01/04 00:14:17;;;;;;;0.93;0.60;;;9.10;99.90;;;;;;10455473;28;20644;-63
2024/01/04 00:19:20;;;;;;;2.53;0.90;;;9.20;99.90;;;;;;10455170;28;20257;-63
2024/01/04 00:24:25;;;;;;;4.50;1.60;;;9.20;99.90;;;;;;10455158;28;20578;-63
2024/01/04 00:29:29;;;;;;;4.70;1.80;;;9.20;99.90;;;;;;10455028;28;20200;-63
2024/01/04 00:34:33;;;;;;;3.47;2.13;;;9.20;99.90;;;;;;10455924;28;20211;-62
2024/01/04 00:39:38;;;;;;;4.40;2.47;;;9.10;99.90;;;;;;10455262;28;20200;-62
2024/01/04 00:44:41;;;;;;;5.17;2.63;;;9.10;99.90;;;;;;10455041;28;20281;-65
2024/01/04 00:49:45;;;;;;;6.60;2.77;;;9.20;99.90;;;;;;10454791;28;20721;-63
2024/01/04 00:54:50;;;;;;;4.43;3.27;;;9.10;99.90;;;;;;10454301;28;20231;-64
2024/01/04 00:59:54;;;;;;;4.30;3.47;;;9.20;99.90;;;;;;10454036;28;20678;-64
2024/01/04 01:04:58;;;;;;;6.87;4.00;;;9.20;99.90;;;;;;10453931;28;20243;-63
2024/01/04 01:10:03;;;;;;;5.93;3.80;;;9.20;99.90;;;;;;10453866;28;20726;-64
2024/01/04 01:15:07;;;;;;;9.43;4.50;;;9.10;99.90;;;;;;10453751;28;20220;-66
2024/01/04 01:20:12;;;;;;;6.90;5.30;;;9.20;99.90;;;;;;10453211;28;20676;-66
2024/01/04 01:25:17;;;;;;;9.17;5.80;;;9.20;99.90;;;;;;10453427;28;20277;-64
2024/01/04 01:30:20;;;;;;;7.03;5.17;;;9.20;99.90;;;;;;10452425;28;20563;-64
2024/01/04 01:35:24;;;;;;;7.93;5.20;;;9.30;99.90;;;;;;10452482;28;20220;-63
2024/01/04 01:40:29;;;;;;;7.43;4.67;;;9.30;99.90;;;;;;10452655;28;20195;-61
2024/01/04 01:45:33;;;;;;;10.40;5.50;;;9.30;99.90;;;;;;10452178;28;20292;-64
2024/01/04 01:50:36;;;;;;;10.23;4.95;;;9.30;99.90;;;;;;10451786;28;20216;-64
2024/01/04 01:55:41;;;;;;;4.47;3.13;;;9.30;99.90;;;;;;10451580;28;20269;-63
2024/01/04 02:00:45;;;;;;;4.53;3.70;;;9.30;99.90;;;;;;10451936;28;20675;-63
2024/01/04 02:05:49;;;;;;;5.30;3.28;;;9.30;99.90;;;;;;10451915;28;20281;-63
2024/01/04 02:10:54;;;;;;;5.00;2.70;;;9.30;99.90;;;;;;10451640;28;20300;-64
2024/01/04 02:15:57;;;;;;;5.03;3.00;;;9.30;99.90;;;;;;10451617;28;20276;-63
2024/01/04 02:21:02;;;;;;;3.67;2.73;;;9.30;99.90;;;;;;10451744;28;20180;-63
2024/01/04 02:26:07;;;;;;;5.40;3.07;;;9.30;99.90;;;;;;10451272;28;20277;-64
2024/01/04 02:31:10;;;;;;;6.43;3.27;;;9.20;99.90;;;;;;10450906;28;20208;-62
2024/01/04 02:36:14;;;;;;;9.17;3.37;;;9.20;99.90;;;;;;10458405;28;20247;-64
2024/01/04 02:41:19;;;;;;;5.37;2.50;;;9.20;99.90;;;;;;10492205;28;20748;-64
2024/01/04 02:46:23;;;;;;;11.00;3.27;;;9.30;99.90;;;;;;10474255;28;20231;-64
2024/01/04 02:51:26;;;;;;;6.27;2.70;;;9.20;99.90;;;;;;10450687;28;20215;-64
2024/01/04 02:56:31;;;;;;;7.18;2.88;;;9.30;99.90;;;;;;10450163;28;20219;-63
2024/01/04 03:01:35;;;;;;;7.43;3.53;;;9.20;99.90;;;;;;10450327;28;20606;-64
2024/01/04 03:06:38;;;;;;;5.77;3.77;;;9.30;99.90;;;;;;10450699;28;20332;-64
2024/01/04 03:11:43;;;;;;;6.47;3.60;;;9.30;99.90;;;;;;10458164;28;20207;-63
2024/01/04 03:16:47;;;;;;;6.30;3.40;;;9.20;99.90;;;;;;10478673;28;20238;-61
2024/01/04 03:21:50;;;;;;;5.83;3.50;;;9.20;99.90;;;;;;10499399;28;20698;-63
2024/01/04 03:26:55;;;;;;;5.23;3.53;;;9.20;99.90;;;;;;10496234;28;20246;-63
2024/01/04 03:31:59;;;;;;;6.90;4.40;;;9.20;99.90;;;;;;10457849;28;20756;-63
2024/01/04 03:37:02;;;;;;;6.47;4.77;;;9.20;99.90;;;;;;10457524;28;20241;-63
2024/01/04 03:42:07;;;;;;;8.23;5.50;;;9.20;99.90;;;;;;10457225;28;20192;-64
2024/01/04 03:47:11;;;;;;;5.55;4.03;;;9.20;99.90;;;;;;10456741;28;20223;-63
2024/01/04 03:52:14;;;;;;;11.82;4.50;;;9.20;99.90;;;;;;10456472;28;20212;-62
2024/01/04 03:57:19;;;;;;;6.03;3.27;;;9.20;99.90;;;;;;10456270;28;20558;-64
2024/01/04 04:02:23;;;;;;;5.57;2.30;;;9.20;99.90;;;;;;10456514;28;20192;-63
2024/01/04 04:07:26;;;;;;;3.37;1.90;;;9.20;99.90;;;;;;10456158;28;20281;-63
2024/01/04 04:12:31;;;;;;;2.83;1.30;;;9.10;99.90;;;;;;10455890;28;20266;-63
2024/01/04 04:17:35;;;;;;;4.27;1.23;;;9.10;99.90;;;;;;10455338;28;20220;-62
2024/01/04 04:22:39;;;;;;;2.43;1.10;;;9.10;99.90;;;;;;10455533;28;20192;-62
2024/01/04 04:27:43;;;;;;;2.60;1.23;;;9.10;99.90;;;;;;10455235;28;20235;-61
2024/01/04 04:32:47;;;;;;;3.83;1.10;;;9.00;99.90;;;;;;10451056;28;20208;-63
2024/01/04 04:37:51;;;;;;;4.73;1.37;;;9.00;99.90;;;;;;10413845;28;20270;-63
2024/01/04 04:42:56;;;;;;;3.23;1.23;;;9.00;99.90;;;;;;10413320;28;20200;-60
2024/01/04 04:47:59;;;;;;;1.73;1.30;;;9.00;99.90;;;;;;10455803;28;20230;-62
2024/01/04 04:53:03;;;;;;;2.73;1.07;;;8.90;99.90;;;;;;10472101;28;20579;-61
2024/01/04 04:58:08;;;;;;;4.53;1.23;;;8.80;99.90;;;;;;10452188;28;20562;-61
2024/01/04 05:03:12;;;;;;;3.73;1.10;;;8.80;99.90;;;;;;10438359;28;20251;-64
2024/01/04 05:08:15;;;;;;;2.03;1.27;;;8.80;99.90;;;;;;10463952;28;20216;-63
2024/01/04 05:13:20;;;;;;;3.20;1.37;;;8.80;99.90;;;;;;10449219;28;20603;-62
2024/01/04 05:18:24;;;;;;;3.80;1.87;;;8.80;99.90;;;;;;10459788;28;20676;-62
2024/01/04 05:23:27;;;;;;;3.17;1.63;;;8.80;99.90;;;;;;10461109;28;20195;-62
2024/01/04 05:28:32;;;;;;;6.07;2.72;;;8.80;99.90;;;;;;10449503;28;20203;-63
2024/01/04 05:33:36;;;;;;;3.50;1.60;;;8.80;99.90;;;;;;10453257;28;20235;-60
2024/01/04 05:38:40;;;;;;;3.20;1.60;;;8.80;99.90;;;;;;10449323;28;20191;-60
2024/01/04 05:43:45;;;;;;;7.20;2.70;;;8.80;99.90;;;;;;10443158;28;20277;-63
2024/01/04 05:48:48;;;;;;;5.07;1.40;;;8.80;99.90;;;;;;10446641;28;20269;-62
2024/01/04 05:53:52;;;;;;;2.70;1.33;;;8.80;99.90;;;;;;10452199;28;20231;-60
2024/01/04 05:58:57;;;;;;;1.87;1.27;;;8.80;99.90;;;;;;10490189;28;20253;-60
2024/01/04 06:04:00;;;;;;;3.77;1.03;;;8.80;99.90;;;;;;10480561;28;20285;-57
2024/01/04 06:09:04;;;;;;;10.70;3.70;;;8.80;99.90;;;;;;10478020;28;20207;-62
2024/01/04 06:14:09;;;;;;;3.93;1.53;;;8.80;99.90;;;;;;10447555;28;20223;-63
2024/01/04 06:19:13;;;;;;;4.87;2.20;;;8.80;99.90;;;;;;10451092;28;20203;-60
2024/01/04 06:24:17;;;;;;;3.67;2.40;;;8.70;99.90;;;;;;10472141;28;20226;-63
2024/01/04 06:29:22;;;;;;;12.27;5.37;;;8.70;99.90;;;;;;10448547;28;20211;-63
2024/01/04 06:34:25;;;;;;;4.27;2.60;;;8.70;99.90;;;;;;10456907;28;20368;-63
2024/01/04 06:39:29;;;;;;;3.80;2.23;;;8.70;99.90;;;;;;10446588;28;20806;-61
2024/01/04 06:44:34;;;;;;;9.33;3.50;;;8.70;99.90;;;;;;10481668;28;20280;-64
2024/01/04 06:49:49;;;;;;;2.37;1.50;;;8.70;99.90;;;;;;10453193;28;20686;-64
2024/01/04 06:54:54;;;;;;;2.27;1.13;;;8.70;99.90;;;;;;10451056;28;20245;-64
2024/01/04 06:59:58;;;;;;;2.53;1.60;;;8.70;99.90;;;;;;10456126;28;20191;-64
2024/01/04 07:05:03;;;;;;;9.60;3.23;;;8.70;99.90;;;;;;10445036;28;20218;-62
2024/01/04 07:10:09;;;;;;;5.70;2.33;;;8.70;99.90;;;;;;10451544;28;20699;-63
2024/01/04 07:15:14;;;;;;;3.73;2.17;;;8.70;99.90;;;;;;10466195;28;20668;-65
2024/01/04 07:20:18;;;;;;;7.33;3.83;;;8.80;99.90;;;;;;10409555;28;20250;-63
2024/01/04 07:25:25;;;;;;;5.87;4.60;;;8.80;99.90;;;;;;10408894;28;20278;-64
2024/01/04 07:30:30;;;;;;;10.63;6.33;;;8.80;99.90;;;;;;10435715;28;20215;-63
2024/01/04 07:35:34;;;;;;;7.70;6.90;;;8.90;99.90;;;;;;10439307;28;20224;-64
2024/01/04 07:40:38;;;;;;;14.87;9.83;;;8.90;99.90;;;;;;10441683;28;20196;-69
2024/01/04 07:45:43;;;;;;;12.30;9.57;;;8.90;99.90;;;;;;10478708;28;20227;-63
2024/01/04 07:50:46;;;;;;;13.13;9.30;;;9.00;99.90;;;;;;10489873;28;20237;-64
2024/01/04 07:55:50;;;;;;;13.07;9.37;;;9.00;99.90;;;;;;10456066;28;20269;-63
2024/01/04 08:00:55;;;;;;;10.03;8.67;;;9.10;99.90;;;;;;10449348;28;20200;-63
2024/01/04 08:06:00;;;;;;;10.23;7.30;;;9.10;99.90;;;;;;10466416;28;20261;-63
2024/01/04 08:11:04;;;;;;;10.45;6.97;;;9.20;99.90;;;;;;10453309;28;20285;-63
2024/01/04 08:16:09;;;;;;;8.63;6.70;;;9.20;99.90;;;;;;10453087;28;20285;-63
2024/01/04 08:21:13;;;;;;;9.57;4.80;;;9.20;99.90;;;;;;10460571;28;20252;-63
2024/01/04 08:26:16;;;;;;;4.50;3.23;;;9.10;99.90;;;;;;10448982;28;20511;-65
2024/01/04 08:31:21;;;;;;;4.33;3.20;;;9.00;99.90;;;;;;10445929;28;20231;-65
2024/01/04 08:36:25;;;;;;;5.65;3.38;;;9.00;99.90;;;;;;10452065;28;20183;-62
2024/01/04 08:41:29;;;;;;;4.43;3.23;;;9.00;99.90;;;;;;10452134;28;20645;-62
2024/01/04 08:46:37;;;;;;;6.13;4.70;;;9.00;99.90;;;;;;10444471;28;20444;-64
2024/01/04 08:51:41;;;;;;;4.18;3.40;;;9.20;99.90;;;;;;10447726;28;20254;-61
2024/01/04 08:56:44;;;;;;;5.35;3.85;;;9.20;99.90;;;;;;10459619;28;20672;-61
2024/01/04 09:01:49;;;;;;;5.50;4.40;;;9.10;99.90;;;;;;10454700;28;20273;-62
2024/01/04 09:06:53;;;;;;;6.57;5.03;;;9.10;99.90;;;;;;10451700;28;20223;-62
2024/01/04 09:11:56;;;;;;;8.93;6.43;;;9.00;99.90;;;;;;10459986;28;20733;-63
2024/01/04 09:17:01;;;;;;;6.03;5.43;;;9.00;99.90;;;;;;10458658;28;20223;-63
2024/01/04 09:22:05;;;;;;;8.88;5.88;;;9.10;99.90;;;;;;10457660;28;20246;-63
2024/01/04 09:27:09;;;;;;;8.50;5.75;;;9.10;99.90;;;;;;10453785;28;20280;-68
2024/01/04 09:32:14;;;;;;;10.50;5.80;;;9.10;99.90;;;;;;10446736;28;20243;-67
2024/01/04 09:37:17;;;;;;;6.23;5.00;;;9.20;99.90;;;;;;10445097;28;20220;-67
2024/01/04 09:42:23;;;;;;;7.33;5.27;;;9.20;99.90;;;;;;10445271;28;20250;-66
2024/01/04 09:47:29;;;;;;;7.83;5.70;;;9.20;99.90;;;;;;10447408;28;20235;-66
2024/01/04 09:52:34;;;;;;;8.50;7.13;;;9.20;99.90;;;;;;10446325;28;20251;-65
2024/01/04 09:57:38;;;;;;;9.50;7.67;;;9.30;99.90;;;;;;10446514;28;20224;-65
2024/01/04 10:02:43;;;;;;;11.68;7.82;;;9.30;99.90;;;;;;10448387;28;20200;-66
2024/01/04 10:07:57;;;;;;;13.27;8.53;;;9.30;99.90;;;;;;10445595;28;20715;-66
2024/01/04 10:13:02;;;;;;;11.23;9.20;;;9.40;99.90;;;;;;10445712;28;20219;-66
2024/01/04 10:18:10;;;;;;;11.50;9.02;;;9.40;99.90;;;;;;10445803;28;20277;-66
2024/01/04 10:23:16;;;;;;;10.82;8.30;;;9.40;99.90;;;;;;10446954;28;20251;-66
2024/01/04 10:28:20;;;;;;;11.03;8.77;;;9.40;99.90;;;;;;10448797;28;20711;-66
2024/01/04 10:33:25;;;;;;;15.40;8.93;;;9.40;99.90;;;;;;10445779;28;20321;-65
2024/01/04 10:38:33;;;;;;;9.90;7.20;;;9.40;99.90;;;;;;10450425;28;20571;-67
2024/01/04 10:43:39;;;;;;;8.53;6.67;;;9.40;99.90;;;;;;10444052;28;20196;-66
2024/01/04 10:48:48;;;;;;;8.70;6.35;;;9.40;99.90;;;;;;10444431;28;20781;-66
2024/01/04 10:53:55;;;;;;;8.17;6.33;;;9.40;99.90;;;;;;10442689;28;20304;-67
2024/01/04 10:59:00;;;;;;;7.97;6.07;;;9.40;99.90;;;;;;10444869;28;20200;-66
2024/01/04 11:04:05;;;;;;;8.10;6.00;;;9.40;99.90;;;;;;10446261;28;20216;-66
2024/01/04 11:09:13;;;;;;;5.70;4.20;;;9.40;99.90;;;;;;10445283;28;20200;-66
2024/01/04 11:14:17;;;;;;;5.82;4.40;;;9.40;99.90;;;;;;10445916;28;20227;-66
2024/01/04 11:19:36;;;;;;;5.80;3.77;;;9.40;99.90;;;;;;10446671;28;20196;-66
2024/01/04 11:24:55;;;;;;;6.30;3.43;;;9.40;99.90;;;;;;10443058;28;20220;-65
2024/01/04 11:29:59;;;;;;;4.70;2.80;;;9.40;99.90;;;;;;10441054;28;20221;-65
2024/01/04 11:35:05;;;;;;;4.17;2.67;;;9.40;99.90;;;;;;10453333;28;20227;-66
2024/01/04 11:40:09;;;;;;;3.20;2.90;;;9.40;99.90;;;;;;10454946;28;20211;-68
2024/01/04 11:45:15;;;;;;;4.60;3.60;;;9.40;99.90;;;;;;10451525;28;20232;-62
2024/01/04 11:50:28;;;;;;;6.43;4.70;;;9.40;99.90;;;;;;10453002;28;20659;-62
2024/01/04 11:55:33;;;;;;;8.68;5.00;;;9.40;99.90;;;;;;10455129;28;20768;-61
2024/01/04 12:00:38;;;;;;;6.37;5.50;;;9.50;99.90;;;;;;10457437;28;20219;-62
2024/01/04 12:05:47;;;;;;;7.60;5.53;;;9.50;99.90;;;;;;10452390;28;20219;-63
2024/01/04 12:10:52;;;;;;;6.77;4.67;;;9.60;99.90;;;;;;10449627;28;20259;-62
2024/01/04 12:15:56;;;;;;;6.20;3.97;;;9.60;99.90;;;;;;10451319;28;20246;-60
2024/01/04 12:21:03;;;;;;;4.30;2.70;;;9.60;99.90;;;;;;10457281;28;20204;-62
2024/01/04 12:26:23;;;;;;;4.18;2.55;;;9.70;99.90;;;;;;10455400;28;20223;-62
2024/01/04 12:31:26;;;;;;;3.20;2.50;;;9.70;99.90;;;;;;10455842;28;20203;-61
2024/01/04 12:36:32;;;;;;;3.53;2.47;;;9.80;99.90;;;;;;10452680;28;20273;-62
2024/01/04 12:41:37;;;;;;;2.00;1.90;;;9.80;99.90;;;;;;10446251;28;20277;-61
2024/01/04 12:46:41;;;;;;;1.87;1.70;;;9.90;99.90;;;;;;10457190;28;20236;-62
2024/01/04 12:51:46;;;;;;;4.88;2.05;;;9.80;99.90;;;;;;10451299;28;20310;-74
2024/01/04 12:56:54;;;;;;;4.60;2.10;;;9.80;99.90;;;;;;10449821;28;20273;-66
2024/01/04 13:01:58;;;;;;;3.50;2.78;;;9.70;99.90;;;;;;10448803;28;20196;-65
2024/01/04 13:07:03;;;;;;;4.88;3.22;;;9.70;99.90;;;;;;10449201;28;20216;-65
2024/01/04 13:12:08;;;;;;;6.88;3.80;;;9.70;99.90;;;;;;10452005;28;20215;-73
2024/01/04 13:17:11;;;;;;;4.93;3.53;;;9.70;99.90;;;;;;10453175;28;20216;-63
2024/01/04 13:22:16;;;;;;;5.13;4.23;;;9.70;99.90;;;;;;10450818;28;20249;-64
2024/01/04 13:27:21;;;;;;;4.32;3.60;;;9.80;99.90;;;;;;10454624;28;20219;-63
2024/01/04 13:32:25;;;;;;;4.60;4.20;;;9.70;99.90;;;;;;10448675;28;20273;-63
2024/01/04 13:37:31;;;;;;;3.93;3.60;;;9.70;99.90;;;;;;10447698;28;20241;-63
2024/01/04 13:42:34;;;;;;;5.60;3.63;;;9.70;99.90;;;;;;10446367;28;20269;-63
2024/01/04 13:47:38;;;;;;;6.90;3.50;;;9.70;99.90;;;;;;10451842;28;20293;-63
2024/01/04 13:52:43;;;;;;;4.33;2.50;;;9.80;99.90;;;;;;10446248;28;20219;-63
2024/01/04 13:57:46;;;;;;;3.60;2.28;;;9.80;99.90;;;;;;10451542;28;20218;-61
2024/01/04 14:02:50;;;;;;;3.90;3.10;;;9.80;99.90;;;;;;10449124;28;20576;-62
2024/01/04 14:07:55;;;;;;;2.25;1.88;;;9.90;99.90;;;;;;10452762;28;20219;-64
2024/01/04 14:12:59;;;;;;;2.90;2.03;;;9.90;99.90;;;;;;10446186;28;20216;-63
2024/01/04 14:18:03;;;;;;;4.63;2.15;;;9.80;99.90;;;;;;10445868;28;20222;-63
2024/01/04 14:23:08;;;;;;;3.80;2.20;;;9.80;99.90;;;;;;10443699;28;20234;-65
2024/01/04 14:28:12;;;;;;;3.92;2.55;;;9.80;99.90;;;;;;10440690;28;20699;-64
2024/01/04 14:33:16;;;;;;;4.03;2.40;;;9.80;99.90;;;;;;10449226;28;20215;-62
2024/01/04 14:38:35;;;;;;;4.00;3.03;;;9.80;99.90;;;;;;10446025;28;20207;-63
2024/01/04 14:43:39;;;;;;;6.68;3.55;;;9.70;99.90;;;;;;10451572;28;21705;-62
2024/01/04 14:48:44;;;;;;;9.27;4.78;;;9.70;99.90;;;;;;10451986;28;20210;-62
2024/01/04 14:53:50;;;;;;;13.70;5.55;;;9.70;99.90;;;;;;10441088;28;20220;-65
2024/01/04 14:58:54;;;;;;;13.70;6.53;;;9.70;99.90;;;;;;10446926;28;20195;-65
2024/01/04 15:03:58;;;;;;;14.90;6.97;;;9.60;99.90;;;;;;10450966;28;20637;-65
2024/01/04 15:09:04;;;;;;;14.23;7.65;;;9.60;99.90;;;;;;10456803;28;20686;-64
2024/01/04 15:14:08;;;;;;;15.53;8.37;;;9.60;99.90;;;;;;10455209;28;20724;-65
2024/01/04 15:19:12;;;;;;;16.85;9.77;;;9.60;99.90;;;;;;10454844;28;20196;-65
2024/01/04 15:24:17;;;;;;;16.43;9.27;;;9.60;99.90;;;;;;10458615;28;20265;-65
2024/01/04 15:29:21;;;;;;;19.30;9.67;;;9.60;99.90;;;;;;10453300;28;20220;-66
2024/01/04 15:34:25;;;;;;;16.17;8.87;;;9.70;99.90;;;;;;10456845;28;20224;-65
2024/01/04 15:39:30;;;;;;;16.60;9.85;;;9.70;99.90;;;;;;10453656;28;20230;-65
2024/01/04 15:44:33;;;;;;;22.48;10.00;;;9.70;99.90;;;;;;10452828;28;20215;-64
2024/01/04 15:49:37;;;;;;;16.73;6.50;;;9.70;99.90;;;;;;10452671;28;20257;-65
2024/01/04 15:54:42;;;;;;;13.38;6.18;;;9.70;99.90;;;;;;10454704;28;20281;-65
2024/01/04 15:59:46;;;;;;;16.33;6.20;;;9.70;99.90;;;;;;10453076;28;20249;-65
2024/01/04 16:04:49;;;;;;;14.73;4.57;;;9.70;99.90;;;;;;10455428;28;20211;-65
2024/01/04 16:09:54;;;;;;;14.67;4.07;;;9.60;99.90;;;;;;10443388;28;20204;-65
2024/01/04 16:17:33;;;;;;;14.55;5.00;;;9.60;99.90;;;;;;10557701;27;20449;-65
2024/01/04 16:22:37;;;;;;;14.38;3.90;;;9.80;99.90;;;;;;10515285;28;20573;-65
2024/01/04 16:27:40;;;;;;;10.82;3.67;;;9.80;99.90;;;;;;10518621;28;20214;-65
2024/01/04 16:32:47;;;;;;;13.75;4.28;;;9.70;99.90;;;;;;10521195;28;20694;-65
2024/01/04 16:37:51;;;;;;;15.68;5.40;;;9.70;99.90;;;;;;10518378;28;20229;-64
2024/01/04 16:42:55;;;;;;;11.63;4.15;;;9.60;99.90;;;;;;10520526;28;20265;-65
2024/01/04 16:48:00;;;;;;;15.37;3.57;;;9.60;99.90;;;;;;10517511;28;20242;-64
2024/01/04 16:53:04;;;;;;;15.88;4.38;;;9.60;99.90;;;;;;10510108;28;20678;-65
2024/01/04 16:58:09;;;;;;;12.87;4.10;;;9.50;99.90;;;;;;10518637;28;20633;-64
2024/01/04 17:03:14;;;;;;;14.10;4.00;;;9.50;99.90;;;;;;10518500;28;20237;-66
2024/01/04 17:08:19;;;;;;;18.83;5.20;;;9.50;99.90;;;;;;10520938;28;20755;-66
2024/01/04 17:13:23;;;;;;;17.37;4.13;;;9.40;99.90;;;;;;10519850;28;20282;-65
2024/01/04 17:18:28;;;;;;;11.90;4.68;;;9.40;99.90;;;;;;10516912;28;20949;-67
2024/01/04 17:23:31;;;;;;;16.57;5.00;;;9.40;99.90;;;;;;10514956;28;20190;-66
2024/01/04 17:28:41;;;;;;;18.02;5.28;;;9.30;99.90;;;;;;10493349;28;20194;-66
2024/01/04 17:33:46;;;;;;;15.10;4.70;;;9.30;99.90;;;;;;10488697;28;20226;-66
2024/01/04 17:38:50;;;;;;;16.43;4.50;;;9.30;99.90;;;;;;10492700;28;20232;-66
2024/01/04 17:43:54;;;;;;;14.90;4.43;;;9.20;99.90;;;;;;10486794;28;20219;-67
2024/01/04 17:48:59;;;;;;;13.70;4.40;;;9.20;99.90;;;;;;10485934;28;20670;-67
2024/01/04 17:54:03;;;;;;;10.63;4.13;;;9.20;99.90;;;;;;10487949;28;20635;-67
2024/01/04 17:59:07;;;;;;;17.17;4.40;;;9.20;99.90;;;;;;10490917;28;20272;-67
2024/01/04 18:04:12;;;;;;;11.07;4.90;;;9.20;99.90;;;;;;10491645;28;20227;-67
2024/01/04 18:09:15;;;;;;;13.83;4.90;;;9.10;99.90;;;;;;10492685;28;20198;-67
2024/01/04 18:14:19;;;;;;;12.60;4.63;;;9.10;99.90;;;;;;10491708;28;20219;-67
2024/01/04 18:19:24;;;;;;;13.93;5.17;;;9.00;99.90;;;;;;10492474;28;20203;-66
2024/01/04 18:24:28;;;;;;;10.23;4.90;;;9.00;99.90;;;;;;10488054;28;20276;-66
2024/01/04 18:29:32;;;;;;;16.00;6.03;;;9.00;99.90;;;;;;10489371;28;20200;-67
2024/01/04 18:34:37;;;;;;;15.67;5.53;;;8.90;99.90;;;;;;10486392;28;20227;-65
2024/01/04 18:39:40;;;;;;;11.15;5.30;;;8.90;99.90;;;;;;10490060;28;20666;-66
2024/01/04 18:44:45;;;;;;;16.70;5.30;;;8.90;99.90;;;;;;10485692;28;20223;-66
2024/01/04 18:49:50;;;;;;;13.40;5.33;;;8.90;99.90;;;;;;10487171;28;20662;-66
2024/01/04 18:54:54;;;;;;;15.37;5.10;;;8.90;99.90;;;;;;10483860;28;20280;-65
2024/01/04 18:59:57;;;;;;;14.52;5.72;;;8.90;99.90;;;;;;10482969;28;20578;-66
2024/01/04 19:05:02;;;;;;;17.27;5.18;;;8.90;99.90;;;;;;10487292;28;20285;-66
2024/01/04 19:10:06;;;;;;;14.73;5.93;;;8.90;99.90;;;;;;10492376;28;20198;-66
2024/01/04 19:15:10;;;;;;;15.50;6.30;;;8.90;99.90;;;;;;10490341;28;20231;-66
2024/01/04 19:20:28;;;;;;;18.37;9.53;;;8.80;99.90;;;;;;10485164;28;20206;-66
2024/01/04 19:25:32;;;;;;;18.03;7.53;;;8.70;99.90;;;;;;10484601;28;20215;-66
2024/01/04 19:30:35;;;;;;;14.88;6.97;;;8.70;99.90;;;;;;10487047;28;20760;-65
2024/01/04 19:35:41;;;;;;;16.90;7.53;;;8.70;99.90;;;;;;10481278;28;20279;-65
2024/01/04 19:40:44;;;;;;;16.07;7.27;;;8.70;99.90;;;;;;10486116;28;20576;-65
2024/01/04 19:45:48;;;;;;;14.90;6.83;;;8.60;99.90;;;;;;10481548;28;20258;-66
2024/01/04 19:51:01;;;;;;;16.20;7.20;;;8.60;99.90;;;;;;10480099;28;20564;-64
2024/01/04 19:56:05;;;;;;;17.60;7.27;;;8.60;99.90;;;;;;10481433;28;20235;-65
2024/01/04 20:01:09;;;;;;;15.93;7.40;;;8.60;99.90;;;;;;10488943;28;20248;-65
2024/01/04 20:06:14;;;;;;;20.43;7.70;;;8.60;99.90;;;;;;10488400;28;20214;-64
2024/01/04 20:11:18;;;;;;;17.10;7.37;;;8.60;99.90;;;;;;10486609;28;20265;-65
2024/01/04 20:16:21;;;;;;;17.13;8.60;;;8.60;99.90;;;;;;10489383;28;20252;-65
2024/01/04 20:21:26;;;;;;;18.83;7.60;;;8.60;99.90;;;;;;10485305;28;20229;-64
2024/01/04 20:26:32;;;;;;;17.07;7.07;;;8.60;99.90;;;;;;10487580;28;20222;-65
2024/01/04 20:31:35;;;;;;;15.70;7.30;;;8.60;99.90;;;;;;10484913;28;20207;-65
2024/01/04 20:36:41;;;;;;;18.97;6.67;;;8.60;99.90;;;;;;10484135;28;20245;-65
2024/01/04 20:41:45;;;;;;;13.97;6.57;;;8.60;99.90;;;;;;10482322;28;20272;-65
2024/01/04 20:46:48;;;;;;;19.37;6.60;;;8.60;99.90;;;;;;10487886;28;20227;-65
2024/01/04 20:51:54;;;;;;;15.13;5.60;;;8.60;99.90;;;;;;10488459;28;20211;-65
2024/01/04 20:56:58;;;;;;;18.30;6.37;;;8.60;99.90;;;;;;10484471;28;20250;-66
2024/01/04 21:02:01;;;;;;;16.07;6.30;;;8.60;99.90;;;;;;10487590;28;20663;-66
2024/01/04 21:07:06;;;;;;;17.90;6.23;;;8.70;99.90;;;;;;10487848;28;20256;-66
2024/01/04 21:12:10;;;;;;;10.73;5.87;;;8.70;99.90;;;;;;10496070;28;20203;-66
2024/01/04 21:17:13;;;;;;;11.17;4.93;;;8.70;99.90;;;;;;10495290;28;20222;-66
2024/01/04 21:22:18;;;;;;;13.73;4.97;;;8.80;99.90;;;;;;10493411;28;20265;-65
2024/01/04 21:27:24;;;;;;;11.53;3.93;;;8.80;99.90;;;;;;10490372;28;20214;-65
2024/01/04 21:32:28;;;;;;;12.87;4.30;;;8.80;99.90;;;;;;10493562;28;20199;-67
2024/01/04 21:37:33;;;;;;;13.23;4.00;;;8.80;99.90;;;;;;10492884;28;20222;-67
2024/01/04 21:42:37;;;;;;;12.97;4.93;;;8.90;99.90;;;;;;10492389;28;20195;-66
2024/01/04 21:47:42;;;;;;;12.67;4.00;;;8.90;99.90;;;;;;10496235;28;20250;-66
2024/01/04 21:52:47;;;;;;;12.13;3.67;;;8.90;99.90;;;;;;10488347;28;20215;-66
2024/01/04 21:57:51;;;;;;;9.37;4.10;;;9.00;99.90;;;;;;10493937;28;20284;-66
2024/01/04 22:02:54;;;;;;;14.70;4.77;;;9.00;99.90;;;;;;10490709;28;20229;-66
2024/01/04 22:07:59;;;;;;;10.73;3.87;;;9.00;99.90;;;;;;10494458;28;20215;-67
2024/01/04 22:13:04;;;;;;;13.67;4.10;;;9.00;99.90;;;;;;10493228;28;20211;-67
2024/01/04 22:18:08;;;;;;;9.73;3.43;;;9.00;99.90;;;;;;10492442;28;20268;-65
2024/01/04 22:23:13;;;;;;;6.97;2.93;;;9.00;99.90;;;;;;10489790;28;20256;-65
2024/01/04 22:28:17;;;;;;;10.47;3.10;;;9.00;99.90;;;;;;10487542;28;20222;-66
2024/01/04 22:33:20;;;;;;;8.83;2.87;;;9.10;99.90;;;;;;10483425;28;20205;-66
2024/01/04 22:38:25;;;;;;;10.63;3.47;;;9.10;99.90;;;;;;10485942;28;20198;-66
2024/01/04 22:43:29;;;;;;;8.70;2.80;;;9.10;99.90;;;;;;10488292;28;20199;-65
2024/01/04 22:48:32;;;;;;;13.90;3.83;;;9.10;99.90;;;;;;10487645;28;20232;-66
2024/01/04 22:53:38;;;;;;;13.80;3.10;;;9.20;99.90;;;;;;10486315;28;20195;-65
2024/01/04 22:58:41;;;;;;;6.80;2.60;;;9.20;99.90;;;;;;10486361;28;20363;-65
2024/01/04 23:03:45;;;;;;;10.10;3.10;;;9.20;99.90;;;;;;10481721;28;20223;-65
2024/01/04 23:08:51;;;;;;;10.50;2.77;;;9.20;99.90;;;;;;10486831;28;20196;-65
2024/01/04 23:13:54;;;;;;;11.53;3.33;;;9.20;99.90;;;;;;10486041;28;20629;-65
2024/01/04 23:18:58;;;;;;;9.23;2.67;;;9.20;99.90;;;;;;10489577;28;20218;-66
2024/01/04 23:24:04;;;;;;;7.20;2.35;;;9.20;99.90;;;;;;10488811;28;20280;-66
2024/01/04 23:29:07;;;;;;;11.35;3.45;;;9.20;99.90;;;;;;10487785;28;20195;-65
2024/01/04 23:34:11;;;;;;;16.13;2.78;;;9.20;99.90;;;;;;10488209;28;20231;-65
2024/01/04 23:39:16;;;;;;;7.93;2.47;;;9.30;99.90;;;;;;10486550;28;20223;-66
2024/01/04 23:44:19;;;;;;;8.95;2.67;;;9.30;99.90;;;;;;10487603;28;20231;-65
2024/01/04 23:49:23;;;;;;;9.43;2.47;;;9.30;99.90;;;;;;10484041;28;20603;-66
2024/01/04 23:54:28;;;;;;;7.37;2.27;;;9.30;99.90;;;;;;10486741;28;20862;-66
2024/01/04 23:59:32;;;;;;;11.00;2.67;;;9.30;99.90;;;;;;10483762;28;20280;-66
